Time,TemperatureF,DewpointF,PressureIn,WindDirection,WindDirectionDegrees,WindSpeedMPH,WindSpeedGustMPH,Humidity,HourlyPrecipIn,Conditions,Clouds,dailyrainin,SoftwareType,DateUTC
2013-03-14 00:00:00,26.3,18.5,30.33,WNW,283,4.0,5.0,72,0.00,,---,0.00,VWS V14.01,2013-03-14 04:00:00,
2013-03-14 00:29:00,25.9,18.8,30.32,WNW,282,3.0,5.0,74,0.00,,---,0.00,VWS V14.00,2013-03-14 04:29:00,
2013-03-14 00:30:00,25.9,18.8,30.32,WNW,282,3.0,5.0,74,0.00,,---,0.00,VWS V14.01,2013-03-14 04:30:00,
2013-03-14 01:00:00,25.6,18.8,30.32,West,274,3.0,5.0,75,0.00,,---,0.00,VWS V14.00,2013-03-14 05:00:00,
2013-03-14 01:30:00,25.4,18.6,30.32,West,280,5.0,5.0,75,0.00,,---,0.00,VWS V14.00,2013-03-14 05:30:00,
2013-03-14 02:00:00,25.5,19.0,30.32,WNW,283,5.0,6.0,76,0.00,,---,0.00,VWS V14.00,2013-03-14 06:00:00,
2013-03-14 02:29:00,25.5,19.3,30.32,WNW,287,5.0,7.0,77,0.00,,---,0.00,VWS V14.00,2013-03-14 06:29:00,
2013-03-14 02:30:00,25.5,19.3,30.32,WNW,287,5.0,7.0,77,0.00,,---,0.00,VWS V14.01,2013-03-14 06:30:00,
2013-03-14 03:00:00,25.6,19.4,30.33,WNW,298,6.0,8.0,77,0.00,,---,0.00,VWS V14.00,2013-03-14 07:00:00,
2013-03-14 03:29:00,25.6,19.7,30.33,West,272,6.0,9.0,78,0.00,,---,0.00,VWS V14.00,2013-03-14 07:29:00,
2013-03-14 03:30:00,25.6,19.7,30.33,West,272,6.0,9.0,78,0.00,,---,0.00,VWS V14.01,2013-03-14 07:30:00,
2013-03-14 04:00:00,25.5,19.6,30.33,West,278,5.0,8.0,78,0.00,,---,0.00,VWS V14.00,2013-03-14 08:00:00,
2013-03-14 04:29:00,25.1,19.5,30.33,West,274,4.0,6.0,79,0.00,,---,0.00,VWS V14.00,2013-03-14 08:29:00,
2013-03-14 04:30:00,25.1,19.5,30.33,West,274,4.0,6.0,79,0.00,,---,0.00,VWS V14.01,2013-03-14 08:30:00,
2013-03-14 04:59:00,25.0,19.1,30.32,West,269,2.0,7.0,78,0.00,,---,0.00,VWS V14.00,2013-03-14 08:59:00,
2013-03-14 05:00:00,25.0,19.1,30.32,West,269,2.0,7.0,78,0.00,,---,0.00,VWS V14.01,2013-03-14 09:00:00,
2013-03-14 05:29:00,24.8,19.2,30.32,West,273,3.0,7.0,79,0.00,,---,0.00,VWS V14.00,2013-03-14 09:29:00,
2013-03-14 05:30:00,24.8,19.2,30.32,West,273,3.0,7.0,79,0.00,,---,0.00,VWS V14.01,2013-03-14 09:30:00,
2013-03-14 06:00:00,24.6,18.7,30.32,West,262,5.0,7.0,78,0.00,,---,0.00,VWS V14.00,2013-03-14 10:00:00,
2013-03-14 06:29:00,24.5,18.6,30.32,West,264,4.0,8.0,78,0.00,,---,0.00,VWS V14.00,2013-03-14 10:29:00,
2013-03-14 06:30:00,24.5,18.6,30.32,West,264,4.0,8.0,78,0.00,,---,0.00,VWS V14.01,2013-03-14 10:30:00,
2013-03-14 06:59:00,24.2,18.3,30.32,WSW,255,2.0,6.0,78,0.00,,---,0.00,VWS V14.00,2013-03-14 10:59:00,
2013-03-14 07:00:00,24.2,18.3,30.32,WSW,255,2.0,6.0,78,0.00,,---,0.00,VWS V14.01,2013-03-14 11:00:00,
2013-03-14 07:29:00,24.0,18.5,30.31,WSW,255,4.0,7.0,79,0.00,,---,0.00,VWS V14.00,2013-03-14 11:29:00,
2013-03-14 07:30:00,24.0,18.4,30.31,WSW,255,4.0,7.0,79,0.00,,---,0.00,VWS V14.01,2013-03-14 11:30:00,
2013-03-14 07:59:00,23.8,18.2,30.31,WSW,253,3.0,6.0,79,0.00,,---,0.00,VWS V14.00,2013-03-14 11:59:00,
2013-03-14 08:00:00,23.8,18.2,30.31,WSW,253,3.0,6.0,79,0.00,,---,0.00,VWS V14.01,2013-03-14 12:00:00,
2013-03-14 08:29:00,23.7,18.5,30.33,West,269,2.0,4.0,80,0.00,,---,0.00,VWS V14.00,2013-03-14 12:29:00,
2013-03-14 08:30:00,23.7,18.4,30.33,West,269,2.0,4.0,80,0.00,,---,0.00,VWS V14.01,2013-03-14 12:30:00,
2013-03-14 08:59:00,24.6,19.0,30.33,West,259,2.0,6.0,79,0.00,,---,0.00,VWS V14.00,2013-03-14 12:59:00,
2013-03-14 09:00:00,24.6,19.0,30.33,West,259,2.0,6.0,79,0.00,,---,0.00,VWS V14.01,2013-03-14 13:00:00,
2013-03-14 09:29:00,26.4,20.8,30.35,WNW,293,2.0,6.0,79,0.00,,---,0.00,VWS V14.00,2013-03-14 13:29:00,
2013-03-14 09:30:00,26.4,20.8,30.35,WNW,293,2.0,6.0,79,0.00,,---,0.00,VWS V14.01,2013-03-14 13:30:00,
2013-03-14 09:59:00,27.6,22.0,30.35,WNW,283,4.0,7.0,79,0.00,,---,0.00,VWS V14.00,2013-03-14 13:59:00,
2013-03-14 10:00:00,27.6,22.0,30.35,WNW,283,4.0,7.0,79,0.00,,---,0.00,VWS V14.01,2013-03-14 14:00:00,
2013-03-14 10:29:00,28.7,22.4,30.35,WNW,283,3.0,8.0,77,0.00,,---,0.00,VWS V14.00,2013-03-14 14:29:00,
2013-03-14 10:30:00,28.7,22.4,30.35,WNW,283,3.0,8.0,77,0.00,,---,0.00,VWS V14.01,2013-03-14 14:30:00,
2013-03-14 10:59:00,29.6,22.0,30.34,WNW,285,2.0,7.0,73,0.00,,---,0.00,VWS V14.00,2013-03-14 14:59:00,
2013-03-14 11:00:00,29.6,22.0,30.34,WNW,285,2.0,7.0,73,0.00,,---,0.00,VWS V14.01,2013-03-14 15:00:00,
2013-03-14 11:29:00,30.8,21.5,30.33,West,269,5.0,8.0,68,0.00,,---,0.00,VWS V14.00,2013-03-14 15:29:00,
2013-03-14 11:30:00,30.8,21.5,30.33,West,269,5.0,8.0,68,0.00,,---,0.00,VWS V14.01,2013-03-14 15:30:00,
2013-03-14 11:59:00,31.9,20.4,30.32,WNW,301,4.0,10.0,62,0.00,,---,0.00,VWS V14.00,2013-03-14 15:59:00,
2013-03-14 12:00:00,31.9,20.4,30.32,WNW,301,4.0,10.0,62,0.00,,---,0.00,VWS V14.01,2013-03-14 16:00:00,
2013-03-14 12:29:00,32.9,20.2,30.32,WNW,282,6.0,8.0,59,0.00,,---,0.00,VWS V14.00,2013-03-14 16:29:00,
2013-03-14 12:30:00,32.9,20.2,30.32,WNW,282,6.0,8.0,59,0.00,,---,0.00,VWS V14.01,2013-03-14 16:30:00,
2013-03-14 13:00:00,33.9,20.7,30.31,SW,232,5.0,10.0,58,0.00,,---,0.00,VWS V14.00,2013-03-14 17:00:00,
2013-03-14 13:29:00,35.7,22.0,30.30,WNW,283,3.0,9.0,57,0.00,,---,0.00,VWS V14.00,2013-03-14 17:29:00,
2013-03-14 13:30:00,35.7,22.0,30.30,WNW,283,3.0,9.0,57,0.00,,---,0.00,VWS V14.01,2013-03-14 17:30:00,
2013-03-14 14:00:00,36.1,20.6,30.28,West,260,3.0,8.0,53,0.00,,---,0.00,VWS V14.00,2013-03-14 18:00:00,
2013-03-14 14:29:00,36.8,22.2,30.27,West,262,2.0,10.0,55,0.00,,---,0.00,VWS V14.00,2013-03-14 18:29:00,
2013-03-14 14:30:00,36.8,22.2,30.27,West,262,2.0,10.0,55,0.00,,---,0.00,VWS V14.01,2013-03-14 18:30:00,
2013-03-14 14:59:00,37.5,21.5,30.26,West,267,6.0,12.0,52,0.00,,---,0.00,VWS V14.00,2013-03-14 18:59:00,
2013-03-14 15:00:00,37.5,21.5,30.26,West,267,6.0,12.0,52,0.00,,---,0.00,VWS V14.01,2013-03-14 19:00:00,
2013-03-14 15:29:00,38.8,23.1,30.25,West,262,6.0,12.0,53,0.00,,---,0.00,VWS V14.00,2013-03-14 19:29:00,
2013-03-14 15:30:00,38.8,23.1,30.25,West,262,6.0,12.0,53,0.00,,---,0.00,VWS V14.01,2013-03-14 19:30:00,
2013-03-14 16:00:00,38.3,24.8,30.24,SSW,209,3.0,13.0,58,0.00,,---,0.00,VWS V14.00,2013-03-14 20:00:00,
2013-03-14 16:29:00,39.2,24.4,30.23,West,264,6.0,14.0,55,0.00,,---,0.00,VWS V14.00,2013-03-14 20:29:00,
2013-03-14 16:30:00,39.2,24.4,30.23,West,264,6.0,14.0,55,0.00,,---,0.00,VWS V14.01,2013-03-14 20:30:00,
2013-03-14 16:59:00,39.2,25.3,30.23,West,259,9.0,12.0,57,0.00,,---,0.00,VWS V14.00,2013-03-14 20:59:00,
2013-03-14 17:00:00,39.2,25.3,30.23,West,259,9.0,12.0,57,0.00,,---,0.00,VWS V14.01,2013-03-14 21:00:00,
2013-03-14 17:29:00,39.2,24.0,30.21,West,263,6.0,14.0,54,0.00,,---,0.00,VWS V14.00,2013-03-14 21:29:00,
2013-03-14 17:30:00,39.2,24.0,30.21,West,263,6.0,14.0,54,0.00,,---,0.00,VWS V14.01,2013-03-14 21:30:00,
2013-03-14 18:00:00,38.8,24.5,30.21,West,260,9.0,13.0,56,0.00,,---,0.00,VWS V14.00,2013-03-14 22:00:00,
2013-03-14 18:29:00,39.2,24.4,30.20,WSW,250,4.0,11.0,55,0.00,,---,0.00,VWS V14.00,2013-03-14 22:29:00,
2013-03-14 18:30:00,39.2,24.4,30.20,WSW,250,4.0,11.0,55,0.00,,---,0.00,VWS V14.01,2013-03-14 22:30:00,
2013-03-14 18:59:00,38.5,23.8,30.20,WSW,249,4.0,11.0,55,0.00,,---,0.00,VWS V14.00,2013-03-14 22:59:00,
2013-03-14 19:00:00,38.5,23.8,30.20,WSW,249,4.0,11.0,55,0.00,,---,0.00,VWS V14.01,2013-03-14 23:00:00,
2013-03-14 19:29:00,37.1,25.3,30.21,West,266,5.0,10.0,62,0.00,,---,0.00,VWS V14.00,2013-03-14 23:29:00,
2013-03-14 19:30:00,37.1,25.3,30.21,West,266,5.0,10.0,62,0.00,,---,0.00,VWS V14.01,2013-03-14 23:30:00,
2013-03-14 19:59:00,37.1,25.7,30.23,WSW,257,7.0,8.0,63,0.00,,---,0.00,VWS V14.00,2013-03-14 23:59:00,
2013-03-14 20:00:00,37.1,25.7,30.23,WSW,257,7.0,8.0,63,0.00,,---,0.00,VWS V14.01,2013-03-15 00:00:00,
2013-03-14 20:29:00,36.7,27.1,30.21,West,262,4.0,10.0,68,0.00,,---,0.00,VWS V14.00,2013-03-15 00:29:00,
2013-03-14 20:30:00,36.7,27.1,30.21,West,262,4.0,10.0,68,0.00,,---,0.00,VWS V14.01,2013-03-15 00:30:00,
2013-03-14 21:00:00,36.2,26.7,30.20,WSW,247,3.0,8.0,68,0.00,,---,0.00,VWS V14.01,2013-03-15 01:00:00,
2013-03-14 21:29:00,35.8,27.3,30.17,WSW,244,3.0,7.0,71,0.00,,---,0.00,VWS V14.00,2013-03-15 01:29:00,
2013-03-14 21:30:00,35.8,27.3,30.17,WSW,244,3.0,7.0,71,0.00,,---,0.00,VWS V14.01,2013-03-15 01:30:00,
2013-03-14 21:59:00,34.7,27.0,30.15,SSW,212,1.0,6.0,73,0.00,,---,0.00,VWS V14.00,2013-03-15 01:59:00,
2013-03-14 22:00:00,34.7,26.9,30.15,SSW,212,1.0,6.0,73,0.00,,---,0.00,VWS V14.01,2013-03-15 02:00:00,
2013-03-14 22:29:00,34.1,27.7,30.17,SW,228,1.0,4.0,77,0.00,,---,0.00,VWS V14.00,2013-03-15 02:29:00,
2013-03-14 22:30:00,34.1,27.7,30.17,SW,228,1.0,4.0,77,0.00,,---,0.00,VWS V14.01,2013-03-15 02:30:00,
2013-03-14 22:59:00,33.9,28.4,30.16,SW,218,2.0,6.0,80,0.00,,---,0.00,VWS V14.00,2013-03-15 02:59:00,
2013-03-14 23:00:00,33.9,28.4,30.16,SW,218,2.0,6.0,80,0.00,,---,0.00,VWS V14.01,2013-03-15 03:00:00,
2013-03-14 23:29:00,33.8,30.1,30.16,WSW,250,5.0,11.0,86,0.00,,---,0.00,VWS V14.00,2013-03-15 03:29:00,
2013-03-14 23:30:00,33.8,30.1,30.16,WSW,250,5.0,11.0,86,0.00,,---,0.00,VWS V14.01,2013-03-15 03:30:00,